sensor_id;sensor_type;location;lat;lon;timestamp;pressure;altitude;pressure_sealevel;temperature;humidity
13422;BME280;6782;55.904;13.396;2023-05-29T00:02:24;101402.88;;;8.22;100.00
13422;BME280;6782;55.904;13.396;2023-05-29T00:05:12;101416.88;;;8.33;100.00
13422;BME280;6782;55.904;13.396;2023-05-29T00:08:01;101411.63;;;8.24;100.00
13422;BME280;6782;55.904;13.396;2023-05-29T00:10:48;101408.13;;;8.34;100.00
13422;BME280;6782;55.904;13.396;2023-05-29T00:13:35;101409.88;;;8.19;100.00
13422;BME280;6782;55.904;13.396;2023-05-29T00:16:22;101423.94;;;7.97;100.00
13422;BME280;6782;55.904;13.396;2023-05-29T00:19:10;101430.94;;;8.01;100.00
13422;BME280;6782;55.904;13.396;2023-05-29T00:21:58;101441.41;;;8.09;100.00
13422;BME280;6782;55.904;13.396;2023-05-29T00:24:46;101434.44;;;8.08;100.00
13422;BME280;6782;55.904;13.396;2023-05-29T00:27:34;101432.72;;;7.77;100.00
13422;BME280;6782;55.904;13.396;2023-05-29T00:30:21;101454.59;;;7.94;100.00
13422;BME280;6782;55.904;13.396;2023-05-29T00:33:08;101453.72;;;8.02;100.00
13422;BME280;6782;55.904;13.396;2023-05-29T00:35:56;101454.63;;;7.91;100.00
13422;BME280;6782;55.904;13.396;2023-05-29T00:38:43;101465.97;;;8.00;100.00
13422;BME280;6782;55.904;13.396;2023-05-29T00:41:32;101471.22;;;7.91;100.00
13422;BME280;6782;55.904;13.396;2023-05-29T00:44:20;101472.09;;;7.84;100.00
13422;BME280;6782;55.904;13.396;2023-05-29T00:47:08;101498.34;;;7.96;100.00
13422;BME280;6782;55.904;13.396;2023-05-29T00:49:56;101486.13;;;7.88;100.00
13422;BME280;6782;55.904;13.396;2023-05-29T00:52:45;101495.75;;;8.08;100.00
13422;BME280;6782;55.904;13.396;2023-05-29T00:55:32;101501.84;;;8.13;100.00
13422;BME280;6782;55.904;13.396;2023-05-29T00:58:22;101479.13;;;7.85;100.00
13422;BME280;6782;55.904;13.396;2023-05-29T01:01:09;101480.00;;;7.75;100.00
13422;BME280;6782;55.904;13.396;2023-05-29T01:03:57;101487.00;;;7.64;100.00
13422;BME280;6782;55.904;13.396;2023-05-29T01:06:46;101488.72;;;7.56;100.00
13422;BME280;6782;55.904;13.396;2023-05-29T01:09:34;101493.13;;;7.57;100.00
13422;BME280;6782;55.904;13.396;2023-05-29T01:12:29;101468.59;;;7.19;100.00
13422;BME280;6782;55.904;13.396;2023-05-29T01:15:29;101499.19;;;7.26;100.00
13422;BME280;6782;55.904;13.396;2023-05-29T01:18:31;101507.09;;;7.36;100.00
13422;BME280;6782;55.904;13.396;2023-05-29T01:21:27;101506.19;;;7.21;100.00
13422;BME280;6782;55.904;13.396;2023-05-29T01:24:26;101503.50;;;7.06;100.00
13422;BME280;6782;55.904;13.396;2023-05-29T01:27:21;101506.13;;;7.06;100.00
13422;BME280;6782;55.904;13.396;2023-05-29T01:30:12;101516.63;;;7.03;100.00
13422;BME280;6782;55.904;13.396;2023-05-29T01:33:00;101526.19;;;6.93;100.00
13422;BME280;6782;55.904;13.396;2023-05-29T01:35:48;101534.97;;;7.04;100.00
13422;BME280;6782;55.904;13.396;2023-05-29T01:38:35;101537.59;;;7.12;100.00
13422;BME280;6782;55.904;13.396;2023-05-29T01:41:23;101544.59;;;7.07;100.00
13422;BME280;6782;55.904;13.396;2023-05-29T01:44:13;101544.56;;;7.04;100.00
13422;BME280;6782;55.904;13.396;2023-05-29T01:47:02;101546.38;;;7.14;100.00
13422;BME280;6782;55.904;13.396;2023-05-29T01:49:51;101545.44;;;7.00;100.00
13422;BME280;6782;55.904;13.396;2023-05-29T01:52:38;101549.81;;;6.98;100.00
13422;BME280;6782;55.904;13.396;2023-05-29T01:55:26;101565.56;;;7.01;100.00
13422;BME280;6782;55.904;13.396;2023-05-29T01:58:13;101571.66;;;6.97;100.00
13422;BME280;6782;55.904;13.396;2023-05-29T02:01:03;101572.50;;;6.89;100.00
13422;BME280;6782;55.904;13.396;2023-05-29T02:03:51;101577.69;;;6.83;100.00
13422;BME280;6782;55.904;13.396;2023-05-29T02:06:39;101600.47;;;6.93;100.00
13422;BME280;6782;55.904;13.396;2023-05-29T02:09:26;101611.03;;;7.03;100.00
13422;BME280;6782;55.904;13.396;2023-05-29T02:12:14;101617.19;;;7.11;100.00
13422;BME280;6782;55.904;13.396;2023-05-29T02:15:01;101625.03;;;7.08;100.00
13422;BME280;6782;55.904;13.396;2023-05-29T02:17:50;101625.09;;;7.14;100.00
13422;BME280;6782;55.904;13.396;2023-05-29T02:20:37;101639.09;;;7.22;100.00
13422;BME280;6782;55.904;13.396;2023-05-29T02:23:24;101632.97;;;7.18;100.00
13422;BME280;6782;55.904;13.396;2023-05-29T02:26:12;101636.44;;;7.14;100.00
13422;BME280;6782;55.904;13.396;2023-05-29T02:29:01;101631.13;;;7.01;100.00
13422;BME280;6782;55.904;13.396;2023-05-29T02:31:48;101638.94;;;6.94;100.00
13422;BME280;6782;55.904;13.396;2023-05-29T02:34:37;101638.09;;;6.96;100.00
13422;BME280;6782;55.904;13.396;2023-05-29T02:37:24;101638.91;;;6.88;100.00
13422;BME280;6782;55.904;13.396;2023-05-29T02:40:12;101647.63;;;6.84;100.00
13422;BME280;6782;55.904;13.396;2023-05-29T02:42:59;101645.03;;;6.89;100.00
13422;BME280;6782;55.904;13.396;2023-05-29T02:45:46;101645.97;;;6.96;100.00
13422;BME280;6782;55.904;13.396;2023-05-29T02:48:33;101653.84;;;7.00;100.00
13422;BME280;6782;55.904;13.396;2023-05-29T02:51:22;101652.09;;;7.04;100.00
13422;BME280;6782;55.904;13.396;2023-05-29T02:54:09;101663.50;;;7.12;100.00
13422;BME280;6782;55.904;13.396;2023-05-29T02:56:57;101666.19;;;7.16;100.00
13422;BME280;6782;55.904;13.396;2023-05-29T02:59:45;101670.59;;;7.25;100.00
13422;BME280;6782;55.904;13.396;2023-05-29T03:02:32;101677.63;;;7.35;100.00
13422;BME280;6782;55.904;13.396;2023-05-29T03:05:20;101675.06;;;7.39;100.00
13422;BME280;6782;55.904;13.396;2023-05-29T03:08:09;101697.03;;;7.67;100.00
13422;BME280;6782;55.904;13.396;2023-05-29T03:10:56;101702.31;;;7.79;100.00
13422;BME280;6782;55.904;13.396;2023-05-29T03:13:43;101708.44;;;7.75;100.00
13422;BME280;6782;55.904;13.396;2023-05-29T03:16:32;101698.78;;;7.74;100.00
13422;BME280;6782;55.904;13.396;2023-05-29T03:19:19;101704.94;;;7.79;100.00
13422;BME280;6782;55.904;13.396;2023-05-29T03:22:07;101700.56;;;7.89;100.00
13422;BME280;6782;55.904;13.396;2023-05-29T03:24:55;101732.28;;;8.66;100.00
13422;BME280;6782;55.904;13.396;2023-05-29T03:27:42;101743.56;;;9.50;100.00
13422;BME280;6782;55.904;13.396;2023-05-29T03:30:29;101752.03;;;10.26;100.00
13422;BME280;6782;55.904;13.396;2023-05-29T03:33:17;101725.19;;;10.88;100.00
13422;BME280;6782;55.904;13.396;2023-05-29T03:36:04;101697.09;;;11.61;100.00
13422;BME280;6782;55.904;13.396;2023-05-29T03:38:53;101670.13;;;12.60;100.00
13422;BME280;6782;55.904;13.396;2023-05-29T03:41:42;101596.28;;;13.37;100.00
13422;BME280;6782;55.904;13.396;2023-05-29T03:44:29;101535.59;;;14.01;100.00
13422;BME280;6782;55.904;13.396;2023-05-29T03:47:16;101476.91;;;14.78;100.00
13422;BME280;6782;55.904;13.396;2023-05-29T03:50:04;101356.19;;;14.60;100.00
13422;BME280;6782;55.904;13.396;2023-05-29T03:52:52;101256.81;;;14.95;100.00
13422;BME280;6782;55.904;13.396;2023-05-29T03:55:39;101180.63;;;15.46;100.00
13422;BME280;6782;55.904;13.396;2023-05-29T03:58:28;101079.34;;;15.99;100.00
13422;BME280;6782;55.904;13.396;2023-05-29T04:01:15;100911.19;;;16.11;100.00
13422;BME280;6782;55.904;13.396;2023-05-29T04:04:02;100736.03;;;16.76;100.00
13422;BME280;6782;55.904;13.396;2023-05-29T04:06:49;100524.91;;;17.71;100.00
13422;BME280;6782;55.904;13.396;2023-05-29T04:09:36;100129.34;;;18.26;100.00
13422;BME280;6782;55.904;13.396;2023-05-29T04:12:24;99392.81;;;17.04;100.00
13422;BME280;6782;55.904;13.396;2023-05-29T04:15:12;99141.16;;;16.13;100.00
13422;BME280;6782;55.904;13.396;2023-05-29T04:18:00;99215.84;;;15.98;100.00
13422;BME280;6782;55.904;13.396;2023-05-29T04:20:48;99390.59;;;15.42;100.00
13422;BME280;6782;55.904;13.396;2023-05-29T04:23:35;99465.75;;;14.74;100.00
13422;BME280;6782;55.904;13.396;2023-05-29T04:26:22;99761.25;;;14.41;100.00
13422;BME280;6782;55.904;13.396;2023-05-29T04:29:12;100003.00;;;14.17;100.00
13422;BME280;6782;55.904;13.396;2023-05-29T04:32:00;100217.38;;;13.28;100.00
13422;BME280;6782;55.904;13.396;2023-05-29T04:34:49;100633.06;;;13.31;100.00
13422;BME280;6782;55.904;13.396;2023-05-29T04:37:36;100775.38;;;13.26;100.00
13422;BME280;6782;55.904;13.396;2023-05-29T04:40:24;100810.09;;;12.89;100.00
13422;BME280;6782;55.904;13.396;2023-05-29T04:43:12;100981.47;;;12.52;100.00
13422;BME280;6782;55.904;13.396;2023-05-29T04:46:01;101062.09;;;12.37;100.00
13422;BME280;6782;55.904;13.396;2023-05-29T04:48:50;101119.94;;;12.51;100.00
13422;BME280;6782;55.904;13.396;2023-05-29T04:51:38;101237.22;;;12.88;100.00
13422;BME280;6782;55.904;13.396;2023-05-29T04:54:27;101272.44;;;12.90;100.00
13422;BME280;6782;55.904;13.396;2023-05-29T04:57:14;101322.81;;;12.87;100.00
13422;BME280;6782;55.904;13.396;2023-05-29T05:00:03;101280.41;;;12.14;100.00
13422;BME280;6782;55.904;13.396;2023-05-29T05:02:52;101293.84;;;11.57;100.00
13422;BME280;6782;55.904;13.396;2023-05-29T05:05:41;101413.09;;;11.86;100.00
13422;BME280;6782;55.904;13.396;2023-05-29T05:08:29;101423.28;;;12.08;100.00
13422;BME280;6782;55.904;13.396;2023-05-29T05:11:17;101417.25;;;12.00;100.00
13422;BME280;6782;55.904;13.396;2023-05-29T05:14:04;101453.59;;;12.36;100.00
13422;BME280;6782;55.904;13.396;2023-05-29T05:16:51;101455.50;;;12.29;100.00
13422;BME280;6782;55.904;13.396;2023-05-29T05:19:38;101463.22;;;12.40;100.00
13422;BME280;6782;55.904;13.396;2023-05-29T05:22:27;101485.75;;;12.59;100.00
13422;BME280;6782;55.904;13.396;2023-05-29T05:25:14;101499.47;;;12.79;100.00
13422;BME280;6782;55.904;13.396;2023-05-29T05:28:02;101502.56;;;12.99;100.00
13422;BME280;6782;55.904;13.396;2023-05-29T05:30:49;101492.91;;;12.98;100.00
13422;BME280;6782;55.904;13.396;2023-05-29T05:33:36;101493.66;;;13.03;100.00
13422;BME280;6782;55.904;13.396;2023-05-29T05:36:24;101489.22;;;13.07;100.00
13422;BME280;6782;55.904;13.396;2023-05-29T05:39:13;101504.94;;;13.14;100.00
13422;BME280;6782;55.904;13.396;2023-05-29T05:42:01;101489.31;;;13.01;100.00
13422;BME280;6782;55.904;13.396;2023-05-29T05:44:48;101466.56;;;12.48;100.00
13422;BME280;6782;55.904;13.396;2023-05-29T05:47:35;101504.97;;;12.70;100.00
13422;BME280;6782;55.904;13.396;2023-05-29T05:50:22;101523.06;;;12.90;100.00
13422;BME280;6782;55.904;13.396;2023-05-29T05:53:10;101508.06;;;12.90;100.00
13422;BME280;6782;55.904;13.396;2023-05-29T05:55:59;101488.59;;;12.50;100.00
13422;BME280;6782;55.904;13.396;2023-05-29T05:58:46;101510.56;;;12.53;100.00
13422;BME280;6782;55.904;13.396;2023-05-29T06:01:35;101525.72;;;12.91;100.00
13422;BME280;6782;55.904;13.396;2023-05-29T06:04:24;101512.22;;;12.61;100.00
13422;BME280;6782;55.904;13.396;2023-05-29T06:07:11;101544.81;;;13.08;100.00
13422;BME280;6782;55.904;13.396;2023-05-29T06:09:59;101511.56;;;12.92;100.00
13422;BME280;6782;55.904;13.396;2023-05-29T06:12:48;101539.78;;;13.36;100.00
13422;BME280;6782;55.904;13.396;2023-05-29T06:15:35;101492.75;;;13.06;100.00
13422;BME280;6782;55.904;13.396;2023-05-29T06:18:22;101491.50;;;13.24;100.00
13422;BME280;6782;55.904;13.396;2023-05-29T06:21:09;101492.97;;;13.37;100.00
13422;BME280;6782;55.904;13.396;2023-05-29T06:23:57;101457.81;;;13.29;100.00
13422;BME280;6782;55.904;13.396;2023-05-29T06:26:44;101478.78;;;13.76;100.00
13422;BME280;6782;55.904;13.396;2023-05-29T06:29:34;101399.31;;;13.73;100.00
13422;BME280;6782;55.904;13.396;2023-05-29T06:32:21;101360.16;;;13.82;100.00
13422;BME280;6782;55.904;13.396;2023-05-29T06:35:08;101337.34;;;14.09;100.00
13422;BME280;6782;55.904;13.396;2023-05-29T06:37:55;101265.47;;;14.17;100.00
13422;BME280;6782;55.904;13.396;2023-05-29T06:40:43;101198.84;;;14.27;100.00
13422;BME280;6782;55.904;13.396;2023-05-29T06:43:30;101131.41;;;14.34;100.00
13422;BME280;6782;55.904;13.396;2023-05-29T06:46:19;101040.13;;;14.40;100.00
13422;BME280;6782;55.904;13.396;2023-05-29T06:49:06;100969.19;;;14.45;100.00
13422;BME280;6782;55.904;13.396;2023-05-29T06:51:53;100878.09;;;14.45;100.00
13422;BME280;6782;55.904;13.396;2023-05-29T06:54:40;100805.28;;;14.52;100.00
13422;BME280;6782;55.904;13.396;2023-05-29T06:57:27;100694.31;;;14.39;100.00
13422;BME280;6782;55.904;13.396;2023-05-29T07:00:15;100678.75;;;14.74;100.00
13422;BME280;6782;55.904;13.396;2023-05-29T07:03:04;100608.91;;;14.92;100.00
13422;BME280;6782;55.904;13.396;2023-05-29T07:05:52;100421.47;;;14.88;100.00
13422;BME280;6782;55.904;13.396;2023-05-29T07:08:40;100336.38;;;14.91;100.00
13422;BME280;6782;55.904;13.396;2023-05-29T07:11:27;100231.72;;;14.95;100.00
13422;BME280;6782;55.904;13.396;2023-05-29T07:14:14;100055.03;;;15.05;100.00
13422;BME280;6782;55.904;13.396;2023-05-29T07:17:01;99838.69;;;15.12;100.00
13422;BME280;6782;55.904;13.396;2023-05-29T07:19:50;99635.34;;;15.22;100.00
13422;BME280;6782;55.904;13.396;2023-05-29T07:22:39;99447.16;;;15.30;100.00
13422;BME280;6782;55.904;13.396;2023-05-29T07:25:26;99387.94;;;15.42;100.00
13422;BME280;6782;55.904;13.396;2023-05-29T07:28:14;99406.50;;;15.56;100.00
13422;BME280;6782;55.904;13.396;2023-05-29T07:31:01;99377.66;;;15.77;100.00
13422;BME280;6782;55.904;13.396;2023-05-29T07:33:48;99247.13;;;15.82;100.00
13422;BME280;6782;55.904;13.396;2023-05-29T07:36:56;99233.50;;;15.99;100.00
13422;BME280;6782;55.904;13.396;2023-05-29T07:39:43;99160.53;;;16.03;100.00
13422;BME280;6782;55.904;13.396;2023-05-29T07:42:30;99115.47;;;15.89;100.00
13422;BME280;6782;55.904;13.396;2023-05-29T07:45:17;99411.66;;;15.99;100.00
13422;BME280;6782;55.904;13.396;2023-05-29T07:48:05;99266.28;;;15.87;100.00
13422;BME280;6782;55.904;13.396;2023-05-29T07:50:52;99392.44;;;16.08;100.00
13422;BME280;6782;55.904;13.396;2023-05-29T07:53:43;99281.78;;;16.18;100.00
13422;BME280;6782;55.904;13.396;2023-05-29T07:56:31;99114.38;;;16.04;100.00
13422;BME280;6782;55.904;13.396;2023-05-29T07:59:19;99047.53;;;15.85;100.00
13422;BME280;6782;55.904;13.396;2023-05-29T08:02:06;99185.66;;;15.99;100.00
13422;BME280;6782;55.904;13.396;2023-05-29T08:04:54;99523.19;;;16.41;100.00
13422;BME280;6782;55.904;13.396;2023-05-29T08:07:41;99353.88;;;16.53;100.00
13422;BME280;6782;55.904;13.396;2023-05-29T08:10:30;99144.91;;;16.83;100.00
13422;BME280;6782;55.904;13.396;2023-05-29T08:13:17;98605.09;;;16.65;96.09
13422;BME280;6782;55.904;13.396;2023-05-29T08:16:05;98646.09;;;16.73;97.05
13422;BME280;6782;55.904;13.396;2023-05-29T08:18:52;98726.13;;;17.04;96.73
13422;BME280;6782;55.904;13.396;2023-05-29T08:21:39;98445.44;;;16.85;94.40
13422;BME280;6782;55.904;13.396;2023-05-29T08:24:27;98554.38;;;16.77;94.33
13422;BME280;6782;55.904;13.396;2023-05-29T08:27:16;97729.97;;;16.89;85.00
13422;BME280;6782;55.904;13.396;2023-05-29T08:30:03;100749.13;;;16.62;79.92
13422;BME280;6782;55.904;13.396;2023-05-29T08:32:51;100872.44;;;17.02;81.38
13422;BME280;6782;55.904;13.396;2023-05-29T08:35:38;100834.34;;;16.62;80.66
13422;BME280;6782;55.904;13.396;2023-05-29T08:38:26;100913.91;;;16.88;81.06
13422;BME280;6782;55.904;13.396;2023-05-29T08:41:19;101038.81;;;17.33;82.71
13422;BME280;6782;55.904;13.396;2023-05-29T08:44:13;101039.28;;;17.43;83.23
13422;BME280;6782;55.904;13.396;2023-05-29T08:47:02;101128.47;;;17.36;86.28
13422;BME280;6782;55.904;13.396;2023-05-29T08:49:52;101153.66;;;17.49;87.19
13422;BME280;6782;55.904;13.396;2023-05-29T08:52:40;101045.41;;;17.45;84.52
13422;BME280;6782;55.904;13.396;2023-05-29T08:55:28;101043.03;;;17.76;83.07
13422;BME280;6782;55.904;13.396;2023-05-29T08:58:15;101049.19;;;17.95;83.21
13422;BME280;6782;55.904;13.396;2023-05-29T09:01:04;101053.50;;;18.17;83.80
13422;BME280;6782;55.904;13.396;2023-05-29T09:03:51;100998.06;;;18.22;81.34
13422;BME280;6782;55.904;13.396;2023-05-29T09:06:40;101038.75;;;18.27;81.05
13422;BME280;6782;55.904;13.396;2023-05-29T09:09:29;101038.97;;;18.22;80.80
13422;BME280;6782;55.904;13.396;2023-05-29T09:12:17;101056.88;;;18.56;80.85
13422;BME280;6782;55.904;13.396;2023-05-29T09:15:16;101071.91;;;18.40;81.10
13422;BME280;6782;55.904;13.396;2023-05-29T09:18:06;100998.50;;;17.60;80.52
13422;BME280;6782;55.904;13.396;2023-05-29T09:20:54;101015.19;;;17.26;80.88
13422;BME280;6782;55.904;13.396;2023-05-29T09:23:42;101106.78;;;16.64;84.69
13422;BME280;6782;55.904;13.396;2023-05-29T09:26:29;101202.75;;;17.05;87.33
13422;BME280;6782;55.904;13.396;2023-05-29T09:29:16;101229.53;;;17.42;88.04
13422;BME280;6782;55.904;13.396;2023-05-29T09:32:06;101137.91;;;18.00;84.50
13422;BME280;6782;55.904;13.396;2023-05-29T09:34:59;101088.03;;;17.84;82.67
13422;BME280;6782;55.904;13.396;2023-05-29T09:37:47;100980.06;;;17.55;78.56
13422;BME280;6782;55.904;13.396;2023-05-29T09:40:37;101031.78;;;17.32;79.40
13422;BME280;6782;55.904;13.396;2023-05-29T09:43:24;100981.31;;;17.84;75.62
13422;BME280;6782;55.904;13.396;2023-05-29T09:46:15;100878.31;;;17.63;70.37
13422;BME280;6782;55.904;13.396;2023-05-29T09:49:02;100848.25;;;17.59;67.83
13422;BME280;6782;55.904;13.396;2023-05-29T09:51:55;100859.66;;;17.97;66.82
13422;BME280;6782;55.904;13.396;2023-05-29T09:54:44;100783.66;;;17.71;63.00
13422;BME280;6782;55.904;13.396;2023-05-29T09:57:33;100963.34;;;18.04;64.39
13422;BME280;6782;55.904;13.396;2023-05-29T10:00:21;100891.91;;;18.09;60.47
13422;BME280;6782;55.904;13.396;2023-05-29T10:03:09;100987.88;;;18.47;61.93
13422;BME280;6782;55.904;13.396;2023-05-29T10:05:57;100898.13;;;18.60;57.13
13422;BME280;6782;55.904;13.396;2023-05-29T10:08:47;100943.72;;;18.40;54.32
13422;BME280;6782;55.904;13.396;2023-05-29T10:11:41;100989.03;;;18.24;53.68
13422;BME280;6782;55.904;13.396;2023-05-29T10:14:30;101034.06;;;17.96;52.83
13422;BME280;6782;55.904;13.396;2023-05-29T10:17:23;101090.56;;;18.58;53.34
13422;BME280;6782;55.904;13.396;2023-05-29T10:20:14;101025.69;;;18.03;52.03
13422;BME280;6782;55.904;13.396;2023-05-29T10:23:04;101105.59;;;18.25;52.80
13422;BME280;6782;55.904;13.396;2023-05-29T10:25:55;101106.44;;;18.26;52.83
13422;BME280;6782;55.904;13.396;2023-05-29T10:28:51;101082.13;;;18.13;52.19
13422;BME280;6782;55.904;13.396;2023-05-29T10:31:48;101182.28;;;18.76;53.73
13422;BME280;6782;55.904;13.396;2023-05-29T10:34:44;101114.56;;;18.77;51.99
13422;BME280;6782;55.904;13.396;2023-05-29T10:37:36;101083.19;;;18.81;49.76
13422;BME280;6782;55.904;13.396;2023-05-29T10:40:26;101060.78;;;18.66;49.09
13422;BME280;6782;55.904;13.396;2023-05-29T10:43:34;101156.19;;;18.98;48.66
13422;BME280;6782;55.904;13.396;2023-05-29T10:47:02;101141.75;;;19.02;48.10
13422;BME280;6782;55.904;13.396;2023-05-29T10:49:50;101136.47;;;19.01;46.82
13422;BME280;6782;55.904;13.396;2023-05-29T10:52:45;101164.53;;;19.09;46.28
13422;BME280;6782;55.904;13.396;2023-05-29T10:55:34;101065.22;;;17.95;44.42
13422;BME280;6782;55.904;13.396;2023-05-29T10:58:22;101183.56;;;18.86;46.11
13422;BME280;6782;55.904;13.396;2023-05-29T11:01:12;101250.03;;;19.28;47.52
13422;BME280;6782;55.904;13.396;2023-05-29T11:04:29;101133.69;;;19.19;44.59
13422;BME280;6782;55.904;13.396;2023-05-29T11:07:32;101162.66;;;18.77;45.36
13422;BME280;6782;55.904;13.396;2023-05-29T11:10:45;101131.63;;;18.74;44.02
13422;BME280;6782;55.904;13.396;2023-05-29T11:13:51;101249.97;;;19.96;45.53
13422;BME280;6782;55.904;13.396;2023-05-29T11:16:41;101199.19;;;19.95;43.93
13422;BME280;6782;55.904;13.396;2023-05-29T11:19:28;101347.97;;;19.66;41.96
13422;BME280;6782;55.904;13.396;2023-05-29T11:22:20;101377.53;;;19.27;41.46
13422;BME280;6782;55.904;13.396;2023-05-29T11:25:10;101417.00;;;19.94;42.83
13422;BME280;6782;55.904;13.396;2023-05-29T11:28:00;101393.34;;;18.96;42.99
13422;BME280;6782;55.904;13.396;2023-05-29T11:30:49;101395.84;;;19.18;43.06
13422;BME280;6782;55.904;13.396;2023-05-29T11:33:40;101416.75;;;18.91;44.05
13422;BME280;6782;55.904;13.396;2023-05-29T11:36:28;101354.06;;;18.80;41.80
13422;BME280;6782;55.904;13.396;2023-05-29T11:39:16;101408.94;;;19.05;43.94
13422;BME280;6782;55.904;13.396;2023-05-29T11:42:03;101436.78;;;19.39;44.26
13422;BME280;6782;55.904;13.396;2023-05-29T11:44:51;101384.31;;;19.34;42.96
13422;BME280;6782;55.904;13.396;2023-05-29T11:47:54;101353.97;;;18.81;42.77
13422;BME280;6782;55.904;13.396;2023-05-29T11:50:43;101398.63;;;18.79;43.71
13422;BME280;6782;55.904;13.396;2023-05-29T11:53:30;101424.25;;;19.20;43.98
13422;BME280;6782;55.904;13.396;2023-05-29T11:56:18;101424.81;;;19.46;43.81
13422;BME280;6782;55.904;13.396;2023-05-29T11:59:05;101413.22;;;19.64;43.56
13422;BME280;6782;55.904;13.396;2023-05-29T12:01:57;101430.75;;;19.33;44.59
13422;BME280;6782;55.904;13.396;2023-05-29T12:04:59;101383.00;;;18.70;43.70
13422;BME280;6782;55.904;13.396;2023-05-29T12:07:49;101435.88;;;19.19;44.11
13422;BME280;6782;55.904;13.396;2023-05-29T12:10:37;101423.53;;;18.61;44.69
13422;BME280;6782;55.904;13.396;2023-05-29T12:13:24;101472.16;;;19.06;45.65
13422;BME280;6782;55.904;13.396;2023-05-29T12:16:11;101411.13;;;18.97;43.99
13422;BME280;6782;55.904;13.396;2023-05-29T12:18:59;101439.88;;;18.92;44.65
13422;BME280;6782;55.904;13.396;2023-05-29T12:21:46;101419.22;;;18.77;44.54
13422;BME280;6782;55.904;13.396;2023-05-29T12:24:36;101488.00;;;19.29;46.21
13422;BME280;6782;55.904;13.396;2023-05-29T12:27:24;101477.53;;;19.25;46.26
13422;BME280;6782;55.904;13.396;2023-05-29T12:30:12;101462.13;;;19.49;45.79
13422;BME280;6782;55.904;13.396;2023-05-29T12:33:01;101533.06;;;19.93;47.53
13422;BME280;6782;55.904;13.396;2023-05-29T12:35:48;101478.47;;;19.05;47.40
13422;BME280;6782;55.904;13.396;2023-05-29T12:38:46;101526.13;;;19.72;48.27
13422;BME280;6782;55.904;13.396;2023-05-29T12:41:36;101454.63;;;19.38;46.96
13422;BME280;6782;55.904;13.396;2023-05-29T12:44:24;101412.53;;;18.48;46.78
13422;BME280;6782;55.904;13.396;2023-05-29T12:47:14;101505.16;;;18.46;48.05
13422;BME280;6782;55.904;13.396;2023-05-29T12:50:19;101521.16;;;18.68;48.63
13422;BME280;6782;55.904;13.396;2023-05-29T12:53:07;101493.09;;;18.38;48.57
13422;BME280;6782;55.904;13.396;2023-05-29T12:55:54;101549.78;;;19.44;49.25
13422;BME280;6782;55.904;13.396;2023-05-29T12:58:44;101402.69;;;19.23;45.44
13422;BME280;6782;55.904;13.396;2023-05-29T13:01:31;101398.59;;;19.16;45.62
13422;BME280;6782;55.904;13.396;2023-05-29T13:04:18;101473.75;;;19.29;47.82
13422;BME280;6782;55.904;13.396;2023-05-29T13:07:05;101441.69;;;19.10;47.13
13422;BME280;6782;55.904;13.396;2023-05-29T13:09:52;101385.59;;;18.33;46.48
13422;BME280;6782;55.904;13.396;2023-05-29T13:12:40;101421.44;;;18.86;46.18
13422;BME280;6782;55.904;13.396;2023-05-29T13:15:29;101395.34;;;18.91;45.28
13422;BME280;6782;55.904;13.396;2023-05-29T13:18:18;101417.94;;;19.21;45.51
13422;BME280;6782;55.904;13.396;2023-05-29T13:21:05;101405.31;;;19.06;45.27
13422;BME280;6782;55.904;13.396;2023-05-29T13:23:53;101384.16;;;17.85;45.46
13422;BME280;6782;55.904;13.396;2023-05-29T13:26:40;101444.22;;;18.36;47.21
13422;BME280;6782;55.904;13.396;2023-05-29T13:29:27;101469.03;;;18.78;47.55
13422;BME280;6782;55.904;13.396;2023-05-29T13:32:16;101480.19;;;19.06;48.18
13422;BME280;6782;55.904;13.396;2023-05-29T13:35:04;101445.81;;;17.99;48.06
13422;BME280;6782;55.904;13.396;2023-05-29T13:37:52;101528.38;;;18.46;49.16
13422;BME280;6782;55.904;13.396;2023-05-29T13:40:39;101445.94;;;18.57;47.75
13422;BME280;6782;55.904;13.396;2023-05-29T13:43:26;101445.16;;;18.35;47.67
13422;BME280;6782;55.904;13.396;2023-05-29T13:46:14;101434.13;;;18.42;47.49
13422;BME280;6782;55.904;13.396;2023-05-29T13:49:03;101406.84;;;17.95;47.35
13422;BME280;6782;55.904;13.396;2023-05-29T13:51:50;101434.47;;;18.14;47.73
13422;BME280;6782;55.904;13.396;2023-05-29T13:54:38;101499.91;;;17.61;49.29
13422;BME280;6782;55.904;13.396;2023-05-29T13:57:25;101539.03;;;18.26;49.94
13422;BME280;6782;55.904;13.396;2023-05-29T14:00:14;101463.53;;;17.80;48.98
13422;BME280;6782;55.904;13.396;2023-05-29T14:03:01;101520.56;;;17.99;49.85
13422;BME280;6782;55.904;13.396;2023-05-29T14:05:50;101481.19;;;17.39;49.74
13422;BME280;6782;55.904;13.396;2023-05-29T14:08:38;101580.50;;;18.56;51.35
13422;BME280;6782;55.904;13.396;2023-05-29T14:11:25;101502.44;;;18.28;50.31
13422;BME280;6782;55.904;13.396;2023-05-29T14:14:12;101513.47;;;18.40;49.98
13422;BME280;6782;55.904;13.396;2023-05-29T14:17:01;101563.09;;;18.86;51.13
13422;BME280;6782;55.904;13.396;2023-05-29T14:19:50;101599.16;;;19.16;52.58
13422;BME280;6782;55.904;13.396;2023-05-29T14:22:39;101565.47;;;18.53;52.87
13422;BME280;6782;55.904;13.396;2023-05-29T14:25:26;101599.25;;;18.54;54.27
13422;BME280;6782;55.904;13.396;2023-05-29T14:28:14;101568.59;;;17.78;54.88
13422;BME280;6782;55.904;13.396;2023-05-29T14:31:01;101623.47;;;18.06;56.01
13422;BME280;6782;55.904;13.396;2023-05-29T14:33:48;101603.09;;;17.61;56.17
13422;BME280;6782;55.904;13.396;2023-05-29T14:36:35;101622.16;;;17.73;56.91
13422;BME280;6782;55.904;13.396;2023-05-29T14:39:24;101651.00;;;17.39;58.84
13422;BME280;6782;55.904;13.396;2023-05-29T14:42:11;101691.75;;;17.67;61.99